Time,TemperatureF,DewpointF,PressureIn,WindDirection,WindDirectionDegrees,WindSpeedMPH,WindSpeedGustMPH,Humidity,HourlyPrecipIn,Conditions,Clouds,dailyrainin,SoftwareType,DateUTC
2013-01-13 00:00:00,41.0,32.3,29.94,NNW,337,7.0,17.0,71,0.00,,,0.00,VWS V14.01,2013-01-13 06:00:00,
2013-01-13 00:03:00,42.9,32.3,29.93,NW,325,18.0,22.0,66,0.00,,,0.00,VWS V14.01,2013-01-13 06:03:00,
2013-01-13 00:05:00,40.9,31.9,29.94,NW,312,11.0,21.0,70,0.00,,,0.00,VWS V14.01,2013-01-13 06:05:00,
2013-01-13 00:08:00,42.7,32.5,29.94,NW,319,11.0,19.0,67,0.00,,,0.00,VWS V14.01,2013-01-13 06:08:00,
2013-01-13 00:10:00,40.9,31.9,29.94,West,275,10.0,16.0,70,0.00,,,0.00,VWS V14.01,2013-01-13 06:10:00,
2013-01-13 00:13:00,42.4,32.2,29.93,NW,320,14.0,22.0,67,0.00,,,0.00,VWS V14.01,2013-01-13 06:13:00,
2013-01-13 00:15:00,40.8,31.8,29.95,NNW,330,9.0,18.0,70,0.00,,,0.00,VWS V14.01,2013-01-13 06:15:00,
2013-01-13 00:18:00,42.2,32.4,29.94,NNW,331,12.0,18.0,68,0.00,,,0.00,VWS V14.01,2013-01-13 06:18:00,
2013-01-13 00:20:00,40.9,32.2,29.95,North,352,12.0,17.0,71,0.00,,,0.00,VWS V14.01,2013-01-13 06:20:00,
2013-01-13 00:23:00,41.9,32.5,29.95,NW,306,10.0,19.0,69,0.00,,,0.00,VWS V14.01,2013-01-13 06:23:00,
2013-01-13 00:25:00,40.8,32.1,29.95,NW,312,6.0,17.0,71,0.00,,,0.00,VWS V14.01,2013-01-13 06:25:00,
2013-01-13 00:28:00,41.7,32.3,29.93,NW,326,13.0,21.0,69,0.00,,,0.00,VWS V14.01,2013-01-13 06:28:00,
2013-01-13 00:30:00,40.8,31.4,29.95,NW,326,17.0,21.0,69,0.00,,,0.00,VWS V14.01,2013-01-13 06:30:00,
2013-01-13 00:33:00,41.5,32.5,29.94,NW,317,13.0,17.0,70,0.00,,,0.00,VWS V14.01,2013-01-13 06:33:00,
2013-01-13 00:35:00,40.7,31.7,29.96,NNW,330,10.0,20.0,70,0.00,,,0.00,VWS V14.01,2013-01-13 06:35:00,
2013-01-13 00:38:00,41.3,32.3,29.94,NW,304,10.0,15.0,70,0.00,,,0.00,VWS V14.01,2013-01-13 06:38:00,
2013-01-13 00:40:00,40.8,31.8,29.97,NW,326,11.0,14.0,70,0.00,,,0.00,VWS V14.01,2013-01-13 06:40:00,
2013-01-13 00:43:00,41.3,32.6,29.94,NW,317,13.0,13.0,71,0.00,,,0.00,VWS V14.01,2013-01-13 06:43:00,
2013-01-13 00:45:00,40.8,31.8,29.97,NNW,327,14.0,18.0,70,0.00,,,0.00,VWS V14.01,2013-01-13 06:45:00,
2013-01-13 00:48:00,41.2,32.5,29.93,NNW,328,12.0,17.0,71,0.00,,,0.00,VWS V14.01,2013-01-13 06:48:00,
2013-01-13 00:50:00,40.9,31.9,29.96,NNW,328,13.0,20.0,70,0.00,,,0.00,VWS V14.01,2013-01-13 06:50:00,
2013-01-13 00:53:00,41.1,32.4,29.94,NW,315,11.0,14.0,71,0.00,,,0.00,VWS V14.01,2013-01-13 06:53:00,
2013-01-13 00:55:00,40.8,31.4,29.97,NW,315,10.0,18.0,69,0.00,,,0.00,VWS V14.01,2013-01-13 06:55:00,
2013-01-13 00:58:00,41.0,32.3,29.94,NNW,332,13.0,17.0,71,0.00,,,0.00,VWS V14.01,2013-01-13 06:58:00,
2013-01-13 01:00:00,40.8,31.4,29.97,NW,324,10.0,20.0,69,0.00,,,0.00,VWS V14.01,2013-01-13 07:00:00,
2013-01-13 01:03:00,40.9,31.9,29.95,NNW,329,13.0,21.0,70,0.00,,,0.00,VWS V14.01,2013-01-13 07:03:00,
2013-01-13 01:05:00,40.7,31.3,29.96,North,356,9.0,18.0,69,0.00,,,0.00,VWS V14.01,2013-01-13 07:05:00,
2013-01-13 01:08:00,40.9,31.9,29.94,NW,324,12.0,16.0,70,0.00,,,0.00,VWS V14.01,2013-01-13 07:08:00,
2013-01-13 01:10:00,40.7,31.3,29.96,NW,320,10.0,18.0,69,0.00,,,0.00,VWS V14.01,2013-01-13 07:10:00,
2013-01-13 01:13:00,40.9,31.9,29.95,NW,321,9.0,18.0,70,0.00,,,0.00,VWS V14.01,2013-01-13 07:13:00,
2013-01-13 01:15:00,40.7,31.3,29.96,NW,314,9.0,18.0,69,0.00,,,0.00,VWS V14.01,2013-01-13 07:15:00,
2013-01-13 01:18:00,40.9,32.2,29.95,North,352,11.0,17.0,71,0.00,,,0.00,VWS V14.01,2013-01-13 07:18:00,
2013-01-13 01:20:00,40.6,30.9,29.96,NW,307,9.0,19.0,68,0.00,,,0.00,VWS V14.01,2013-01-13 07:20:00,
2013-01-13 01:23:00,40.8,31.8,29.95,NW,325,12.0,17.0,70,0.00,,,0.00,VWS V14.01,2013-01-13 07:23:00,
2013-01-13 01:25:00,40.5,30.8,29.97,NNW,333,16.0,20.0,68,0.00,,,0.00,VWS V14.01,2013-01-13 07:25:00,
2013-01-13 01:28:00,40.8,31.8,29.95,NW,324,12.0,17.0,70,0.00,,,0.00,VWS V14.01,2013-01-13 07:28:00,
2013-01-13 01:30:00,40.3,30.2,29.97,NW,326,14.0,20.0,67,0.00,,,0.00,VWS V14.01,2013-01-13 07:30:00,
2013-01-13 01:33:00,40.7,31.3,29.95,NW,325,12.0,20.0,69,0.00,,,0.00,VWS V14.01,2013-01-13 07:33:00,
2013-01-13 01:35:00,40.1,29.7,29.99,NNW,333,7.0,22.0,66,0.00,,,0.00,VWS V14.01,2013-01-13 07:35:00,
2013-01-13 01:38:00,40.8,31.8,29.96,NNW,329,9.0,14.0,70,0.00,,,0.00,VWS V14.01,2013-01-13 07:38:00,
2013-01-13 01:40:00,40.1,30.0,29.98,North,357,17.0,20.0,67,0.00,,,0.00,VWS V14.01,2013-01-13 07:40:00,
2013-01-13 01:43:00,40.8,31.4,29.97,NW,325,11.0,18.0,69,0.00,,,0.00,VWS V14.01,2013-01-13 07:43:00,
2013-01-13 01:45:00,40.0,29.9,29.98,NW,313,17.0,20.0,67,0.00,,,0.00,VWS V14.01,2013-01-13 07:45:00,
2013-01-13 01:48:00,40.8,31.4,29.97,NW,326,12.0,20.0,69,0.00,,,0.00,VWS V14.01,2013-01-13 07:48:00,
2013-01-13 01:50:00,40.0,29.9,29.99,NNW,327,13.0,17.0,67,0.00,,,0.00,VWS V14.01,2013-01-13 07:50:00,
2013-01-13 01:53:00,40.8,31.4,29.97,NW,320,18.0,18.0,69,0.00,,,0.00,VWS V14.01,2013-01-13 07:53:00,
2013-01-13 01:55:00,40.1,30.0,29.99,NW,317,7.0,19.0,67,0.00,,,0.00,VWS V14.01,2013-01-13 07:55:00,
2013-01-13 01:58:00,40.8,31.4,29.97,NNW,338,19.0,20.0,69,0.00,,,0.00,VWS V14.01,2013-01-13 07:58:00,
2013-01-13 02:00:00,40.1,30.0,29.99,NNW,329,8.0,12.0,67,0.00,,,0.00,VWS V14.01,2013-01-13 08:00:00,
2013-01-13 02:03:00,40.8,31.4,29.97,NNW,334,9.0,18.0,69,0.00,,,0.00,VWS V14.01,2013-01-13 08:03:00,
2013-01-13 02:05:00,40.1,30.0,29.98,NNW,344,9.0,18.0,67,0.00,,,0.00,VWS V14.01,2013-01-13 08:05:00,
2013-01-13 02:08:00,40.7,31.3,29.96,NW,315,13.0,17.0,69,0.00,,,0.00,VWS V14.01,2013-01-13 08:08:00,
2013-01-13 02:10:00,40.1,30.0,29.98,NW,326,8.0,17.0,67,0.00,,,0.00,VWS V14.01,2013-01-13 08:10:00,
2013-01-13 02:13:00,40.7,31.3,29.96,NNW,329,8.0,18.0,69,0.00,,,0.00,VWS V14.01,2013-01-13 08:13:00,
2013-01-13 02:15:00,40.0,29.9,29.99,NNW,335,8.0,16.0,67,0.00,,,0.00,VWS V14.01,2013-01-13 08:15:00,
2013-01-13 02:18:00,40.6,30.9,29.96,NNW,336,12.0,17.0,68,0.00,,,0.00,VWS V14.01,2013-01-13 08:18:00,
2013-01-13 02:20:00,39.9,29.1,30.01,NW,325,15.0,22.0,65,0.00,,,0.00,VWS V14.01,2013-01-13 08:20:00,
2013-01-13 02:23:00,40.5,30.8,29.97,NNW,342,18.0,18.0,68,0.00,,,0.00,VWS V14.01,2013-01-13 08:23:00,
2013-01-13 02:25:00,39.8,29.4,30.01,NW,323,15.0,22.0,66,0.00,,,0.00,VWS V14.01,2013-01-13 08:25:00,
2013-01-13 02:28:00,40.4,30.3,29.97,NW,304,15.0,17.0,67,0.00,,,0.00,VWS V14.01,2013-01-13 08:28:00,
2013-01-13 02:30:00,39.8,29.4,30.00,NNW,343,13.0,20.0,66,0.00,,,0.00,VWS V14.01,2013-01-13 08:30:00,
2013-01-13 02:33:00,40.2,30.1,29.98,NW,317,17.0,22.0,67,0.00,,,0.00,VWS V14.01,2013-01-13 08:33:00,
2013-01-13 02:35:00,39.8,29.4,30.00,NW,315,14.0,17.0,66,0.00,,,0.00,VWS V14.01,2013-01-13 08:35:00,
2013-01-13 02:38:00,40.1,30.0,29.99,NW,318,12.0,18.0,67,0.00,,,0.00,VWS V14.01,2013-01-13 08:38:00,
2013-01-13 02:40:00,39.8,29.4,30.00,NNW,328,10.0,18.0,66,0.00,,,0.00,VWS V14.01,2013-01-13 08:40:00,
2013-01-13 02:43:00,40.0,29.9,29.98,NNW,329,11.0,20.0,67,0.00,,,0.00,VWS V14.01,2013-01-13 08:43:00,
2013-01-13 02:45:00,39.7,29.3,30.00,NW,324,19.0,22.0,66,0.00,,,0.00,VWS V14.01,2013-01-13 08:45:00,
2013-01-13 02:48:00,40.0,29.9,29.98,NW,322,7.0,17.0,67,0.00,,,0.00,VWS V14.01,2013-01-13 08:48:00,
2013-01-13 02:50:00,39.7,29.3,30.00,NNW,331,10.0,19.0,66,0.00,,,0.00,VWS V14.01,2013-01-13 08:50:00,
2013-01-13 02:52:00,40.0,29.9,29.98,NNW,339,15.0,19.0,67,0.00,,,0.00,VWS V14.01,2013-01-13 08:52:00,
2013-01-13 02:55:00,39.7,29.3,30.00,NW,307,11.0,20.0,66,0.00,,,0.00,VWS V14.01,2013-01-13 08:55:00,
2013-01-13 02:57:00,40.1,30.0,29.99,NNW,348,12.0,12.0,67,0.00,,,0.00,VWS V14.01,2013-01-13 08:57:00,
2013-01-13 03:00:00,39.5,28.7,30.00,NW,312,12.0,21.0,65,0.00,,,0.00,VWS V14.01,2013-01-13 09:00:00,
2013-01-13 03:02:00,40.1,30.0,29.99,NW,318,7.0,14.0,67,0.00,,,0.00,VWS V14.01,2013-01-13 09:02:00,
2013-01-13 03:05:00,39.4,28.6,30.00,NNW,338,13.0,17.0,65,0.00,,,0.00,VWS V14.01,2013-01-13 09:05:00,
2013-01-13 03:07:00,40.1,30.0,29.98,NW,318,11.0,17.0,67,0.00,,,0.00,VWS V14.01,2013-01-13 09:07:00,
2013-01-13 03:10:00,39.2,28.4,30.00,NW,320,11.0,19.0,65,0.00,,,0.00,VWS V14.01,2013-01-13 09:10:00,
2013-01-13 03:12:00,40.1,30.0,29.99,NNW,331,10.0,14.0,67,0.00,,,0.00,VWS V14.01,2013-01-13 09:12:00,
2013-01-13 03:15:00,39.1,28.3,30.00,North,355,10.0,19.0,65,0.00,,,0.00,VWS V14.01,2013-01-13 09:15:00,
2013-01-13 03:17:00,40.0,29.6,30.00,NW,325,12.0,19.0,66,0.00,,,0.00,VWS V14.01,2013-01-13 09:17:00,
2013-01-13 03:20:00,38.9,27.8,30.00,NNW,327,14.0,21.0,64,0.00,,,0.00,VWS V14.01,2013-01-13 09:20:00,
2013-01-13 03:22:00,39.8,29.0,30.01,North,349,13.0,22.0,65,0.00,,,0.00,VWS V14.01,2013-01-13 09:22:00,
2013-01-13 03:25:00,38.8,27.7,30.01,NW,319,16.0,21.0,64,0.00,,,0.00,VWS V14.01,2013-01-13 09:25:00,
2013-01-13 03:27:00,39.8,29.4,30.00,NW,322,16.0,20.0,66,0.00,,,0.00,VWS V14.01,2013-01-13 09:27:00,
2013-01-13 03:30:00,38.8,27.7,30.01,NW,320,11.0,20.0,64,0.00,,,0.00,VWS V14.01,2013-01-13 09:30:00,
2013-01-13 03:32:00,39.8,29.4,30.00,NW,316,9.0,15.0,66,0.00,,,0.00,VWS V14.01,2013-01-13 09:32:00,
2013-01-13 03:35:00,38.8,27.7,30.01,NW,324,10.0,18.0,64,0.00,,,0.00,VWS V14.01,2013-01-13 09:35:00,
2013-01-13 03:37:00,39.8,29.4,30.00,NNW,337,10.0,14.0,66,0.00,,,0.00,VWS V14.01,2013-01-13 09:37:00,
2013-01-13 03:40:00,38.8,27.7,30.02,NW,326,8.0,14.0,64,0.00,,,0.00,VWS V14.01,2013-01-13 09:40:00,
2013-01-13 03:42:00,39.7,29.3,30.00,NW,325,18.0,22.0,66,0.00,,,0.00,VWS V14.01,2013-01-13 09:42:00,
2013-01-13 03:45:00,38.9,28.1,30.02,NNW,335,7.0,13.0,65,0.00,,,0.00,VWS V14.01,2013-01-13 09:45:00,
2013-01-13 03:47:00,39.7,29.3,30.00,NNW,342,8.0,19.0,66,0.00,,,0.00,VWS V14.01,2013-01-13 09:47:00,
2013-01-13 03:50:00,38.8,27.7,30.02,NW,322,18.0,20.0,64,0.00,,,0.00,VWS V14.01,2013-01-13 09:50:00,
2013-01-13 03:52:00,39.7,29.3,30.00,North,360,16.0,20.0,66,0.00,,,0.00,VWS V14.01,2013-01-13 09:52:00,
2013-01-13 03:55:00,38.6,27.5,30.01,NW,319,14.0,22.0,64,0.00,,,0.00,VWS V14.01,2013-01-13 09:55:00,
2013-01-13 03:57:00,39.6,29.2,29.99,NW,312,14.0,18.0,66,0.00,,,0.00,VWS V14.01,2013-01-13 09:57:00,
2013-01-13 04:00:00,38.5,27.4,30.01,NNW,338,16.0,21.0,64,0.00,,,0.00,VWS V14.01,2013-01-13 10:00:00,
2013-01-13 04:02:00,39.5,28.7,30.00,NW,315,12.0,17.0,65,0.00,,,0.00,VWS V14.01,2013-01-13 10:02:00,
2013-01-13 04:05:00,38.5,27.4,30.01,NNW,329,11.0,21.0,64,0.00,,,0.00,VWS V14.01,2013-01-13 10:05:00,
2013-01-13 04:07:00,39.3,28.5,30.00,NW,315,19.0,19.0,65,0.00,,,0.00,VWS V14.01,2013-01-13 10:07:00,
2013-01-13 04:10:00,38.4,27.7,30.02,NW,319,11.0,22.0,65,0.00,,,0.00,VWS V14.01,2013-01-13 10:10:00,
2013-01-13 04:12:00,39.2,28.4,30.00,NW,324,9.0,15.0,65,0.00,,,0.00,VWS V14.01,2013-01-13 10:12:00,
2013-01-13 04:15:00,38.5,27.8,30.02,NW,318,10.0,21.0,65,0.00,,,0.00,VWS V14.01,2013-01-13 10:15:00,
2013-01-13 04:17:00,39.0,27.9,30.00,NNW,329,14.0,20.0,64,0.00,,,0.00,VWS V14.01,2013-01-13 10:17:00,
2013-01-13 04:20:00,38.4,27.7,30.02,NW,313,10.0,17.0,65,0.00,,,0.00,VWS V14.01,2013-01-13 10:20:00,
2013-01-13 04:22:00,38.8,27.7,30.00,WNW,300,13.0,21.0,64,0.00,,,0.00,VWS V14.01,2013-01-13 10:22:00,
2013-01-13 04:25:00,38.4,27.7,30.02,NNW,327,14.0,18.0,65,0.00,,,0.00,VWS V14.01,2013-01-13 10:25:00,
2013-01-13 04:27:00,38.8,27.7,30.01,NNW,332,18.0,19.0,64,0.00,,,0.00,VWS V14.01,2013-01-13 10:27:00,
2013-01-13 04:30:00,38.3,27.6,30.02,NNW,342,12.0,17.0,65,0.00,,,0.00,VWS V14.01,2013-01-13 10:30:00,
2013-01-13 04:32:00,38.8,27.7,30.01,NW,307,13.0,18.0,64,0.00,,,0.00,VWS V14.01,2013-01-13 10:32:00,
2013-01-13 04:35:00,38.2,27.5,30.03,NW,325,8.0,16.0,65,0.00,,,0.00,VWS V14.01,2013-01-13 10:35:00,
2013-01-13 04:37:00,38.8,27.7,30.02,NW,317,10.0,14.0,64,0.00,,,0.00,VWS V14.01,2013-01-13 10:37:00,
2013-01-13 04:40:00,38.1,27.8,30.03,NW,319,11.0,13.0,66,0.00,,,0.00,VWS V14.01,2013-01-13 10:40:00,
2013-01-13 04:42:00,38.8,28.1,30.02,NW,322,8.0,11.0,65,0.00,,,0.00,VWS V14.01,2013-01-13 10:42:00,
2013-01-13 04:45:00,38.1,27.4,30.03,NW,309,11.0,14.0,65,0.00,,,0.00,VWS V14.01,2013-01-13 10:45:00,
2013-01-13 04:47:00,38.9,28.1,30.01,NW,312,11.0,16.0,65,0.00,,,0.00,VWS V14.01,2013-01-13 10:47:00,
2013-01-13 04:50:00,37.9,27.2,30.03,NNW,331,10.0,19.0,65,0.00,,,0.00,VWS V14.01,2013-01-13 10:50:00,
2013-01-13 04:52:00,38.7,27.6,30.01,NW,313,15.0,22.0,64,0.00,,,0.00,VWS V14.01,2013-01-13 10:52:00,
2013-01-13 04:55:00,37.9,27.2,30.04,NNW,333,8.0,17.0,65,0.00,,,0.00,VWS V14.01,2013-01-13 10:55:00,
2013-01-13 04:57:00,38.6,27.9,30.01,NNW,332,9.0,18.0,65,0.00,,,0.00,VWS V14.01,2013-01-13 10:57:00,
2013-01-13 05:00:00,37.9,27.2,30.04,NNW,333,17.0,19.0,65,0.00,,,0.00,VWS V14.01,2013-01-13 11:00:00,
2013-01-13 05:02:00,38.5,27.4,30.01,NNW,338,11.0,19.0,64,0.00,,,0.00,VWS V14.01,2013-01-13 11:02:00,
2013-01-13 05:05:00,37.9,27.2,30.04,NNW,329,12.0,20.0,65,0.00,,,0.00,VWS V14.01,2013-01-13 11:05:00,
2013-01-13 05:07:00,38.4,27.7,30.01,NW,324,19.0,19.0,65,0.00,,,0.00,VWS V14.01,2013-01-13 11:07:00,
2013-01-13 05:10:00,37.9,27.2,30.05,NW,322,12.0,24.0,65,0.00,,,0.00,VWS V14.01,2013-01-13 11:10:00,
2013-01-13 05:12:00,38.4,27.7,30.02,NW,324,8.0,17.0,65,0.00,,,0.00,VWS V14.01,2013-01-13 11:12:00,
2013-01-13 05:15:00,37.8,27.1,30.05,NW,318,8.0,17.0,65,0.00,,,0.00,VWS V14.01,2013-01-13 11:15:00,
2013-01-13 05:17:00,38.4,27.3,30.02,NW,312,15.0,17.0,64,0.00,,,0.00,VWS V14.01,2013-01-13 11:17:00,
2013-01-13 05:20:00,37.7,27.0,30.05,NNW,330,14.0,18.0,65,0.00,,,0.00,VWS V14.01,2013-01-13 11:20:00,
2013-01-13 05:22:00,38.4,27.7,30.01,NNW,341,9.0,11.0,65,0.00,,,0.00,VWS V14.01,2013-01-13 11:22:00,
2013-01-13 05:25:00,37.7,27.0,30.06,NNW,332,10.0,20.0,65,0.00,,,0.00,VWS V14.01,2013-01-13 11:25:00,
2013-01-13 05:27:00,38.3,27.6,30.02,NNW,337,12.0,17.0,65,0.00,,,0.00,VWS V14.01,2013-01-13 11:27:00,
2013-01-13 05:30:00,37.6,26.9,30.07,NNW,339,7.0,15.0,65,0.00,,,0.00,VWS V14.01,2013-01-13 11:30:00,
2013-01-13 05:32:00,38.2,27.9,30.03,NW,319,7.0,14.0,66,0.00,,,0.00,VWS V14.01,2013-01-13 11:32:00,
2013-01-13 05:35:00,37.7,27.4,30.06,NW,323,15.0,20.0,66,0.00,,,0.00,VWS V14.01,2013-01-13 11:35:00,
2013-01-13 05:37:00,38.2,27.5,30.03,NW,320,10.0,13.0,65,0.00,,,0.00,VWS V14.01,2013-01-13 11:37:00,
2013-01-13 05:40:00,37.6,26.9,30.07,NW,324,13.0,16.0,65,0.00,,,0.00,VWS V14.01,2013-01-13 11:40:00,
2013-01-13 05:42:00,38.1,27.4,30.03,NNW,333,7.0,11.0,65,0.00,,,0.00,VWS V14.01,2013-01-13 11:42:00,
2013-01-13 05:45:00,37.5,26.8,30.07,NW,326,9.0,17.0,65,0.00,,,0.00,VWS V14.01,2013-01-13 11:45:00,
2013-01-13 05:47:00,38.1,27.4,30.03,NW,311,11.0,19.0,65,0.00,,,0.00,VWS V14.01,2013-01-13 11:47:00,
2013-01-13 05:50:00,37.4,26.7,30.07,NNW,330,13.0,21.0,65,0.00,,,0.00,VWS V14.01,2013-01-13 11:50:00,
2013-01-13 05:52:00,37.9,27.2,30.03,NW,312,8.0,16.0,65,0.00,,,0.00,VWS V14.01,2013-01-13 11:52:00,
2013-01-13 05:55:00,37.2,26.9,30.08,NNW,334,9.0,19.0,66,0.00,,,0.00,VWS V14.01,2013-01-13 11:55:00,
2013-01-13 05:57:00,37.9,27.2,30.04,NW,326,8.0,14.0,65,0.00,,,0.00,VWS V14.01,2013-01-13 11:57:00,
2013-01-13 06:00:00,37.1,26.8,30.08,NNW,340,10.0,16.0,66,0.00,,,0.00,VWS V14.01,2013-01-13 12:00:00,
2013-01-13 06:02:00,37.9,27.2,30.04,NW,324,8.0,20.0,65,0.00,,,0.00,VWS V14.01,2013-01-13 12:02:00,
2013-01-13 06:05:00,37.1,26.8,30.09,NNW,333,7.0,11.0,66,0.00,,,0.00,VWS V14.01,2013-01-13 12:05:00,
2013-01-13 06:07:00,37.9,27.6,30.05,NNW,337,16.0,16.0,66,0.00,,,0.00,VWS V14.01,2013-01-13 12:07:00,
2013-01-13 06:10:00,37.1,26.8,30.09,NW,317,8.0,16.0,66,0.00,,,0.00,VWS V14.01,2013-01-13 12:10:00,
2013-01-13 06:12:00,37.8,27.1,30.05,NNW,331,10.0,16.0,65,0.00,,,0.00,VWS V14.01,2013-01-13 12:12:00,
2013-01-13 06:15:00,37.1,26.8,30.09,NW,320,11.0,16.0,66,0.00,,,0.00,VWS V14.01,2013-01-13 12:15:00,
2013-01-13 06:17:00,37.7,27.0,30.06,NW,322,11.0,18.0,65,0.00,,,0.00,VWS V14.01,2013-01-13 12:17:00,
2013-01-13 06:20:00,37.1,26.8,30.10,NNW,329,8.0,15.0,66,0.00,,,0.00,VWS V14.01,2013-01-13 12:20:00,
2013-01-13 06:22:00,37.7,27.0,30.05,NW,325,9.0,20.0,65,0.00,,,0.00,VWS V14.01,2013-01-13 12:22:00,
2013-01-13 06:25:00,37.1,26.8,30.10,NW,326,11.0,16.0,66,0.00,,,0.00,VWS V14.01,2013-01-13 12:25:00,
2013-01-13 06:27:00,37.7,27.0,30.06,NNW,334,13.0,14.0,65,0.00,,,0.00,VWS V14.01,2013-01-13 12:27:00,
2013-01-13 06:30:00,37.0,26.3,30.11,NNW,327,9.0,16.0,65,0.00,,,0.00,VWS V14.01,2013-01-13 12:30:00,
2013-01-13 06:32:00,37.7,27.4,30.06,NNW,329,17.0,17.0,66,0.00,,,0.00,VWS V14.01,2013-01-13 12:32:00,
2013-01-13 06:35:00,37.0,26.3,30.11,NW,320,11.0,18.0,65,0.00,,,0.00,VWS V14.01,2013-01-13 12:35:00,
2013-01-13 06:37:00,37.7,27.0,30.07,NNW,327,11.0,15.0,65,0.00,,,0.00,VWS V14.01,2013-01-13 12:37:00,
2013-01-13 06:40:00,36.9,26.6,30.12,NW,304,9.0,17.0,66,0.00,,,0.00,VWS V14.01,2013-01-13 12:40:00,
2013-01-13 06:42:00,37.6,26.9,30.07,NW,307,9.0,14.0,65,0.00,,,0.00,VWS V14.01,2013-01-13 12:42:00,
2013-01-13 06:45:00,36.9,26.6,30.12,NW,311,11.0,17.0,66,0.00,,,0.00,VWS V14.01,2013-01-13 12:45:00,
2013-01-13 06:47:00,37.5,26.8,30.07,NW,324,16.0,21.0,65,0.00,,,0.00,VWS V14.01,2013-01-13 12:47:00,
2013-01-13 06:50:00,36.9,26.2,30.13,NNW,339,16.0,17.0,65,0.00,,,0.00,VWS V14.01,2013-01-13 12:50:00,
2013-01-13 06:52:00,37.3,26.6,30.07,NW,318,13.0,19.0,65,0.00,,,0.00,VWS V14.01,2013-01-13 12:52:00,
2013-01-13 06:55:00,36.8,26.5,30.12,NW,314,9.0,20.0,66,0.00,,,0.00,VWS V14.01,2013-01-13 12:55:00,
2013-01-13 06:57:00,37.2,26.9,30.08,NNW,334,15.0,15.0,66,0.00,,,0.00,VWS V14.01,2013-01-13 12:57:00,
2013-01-13 07:00:00,36.7,26.4,30.13,NW,315,10.0,19.0,66,0.00,,,0.00,VWS V14.01,2013-01-13 13:00:00,
2013-01-13 07:02:00,37.2,26.9,30.08,NW,319,7.0,11.0,66,0.00,,,0.00,VWS V14.01,2013-01-13 13:02:00,
2013-01-13 07:05:00,36.4,26.1,30.14,NW,313,14.0,16.0,66,0.00,,,0.00,VWS V14.01,2013-01-13 13:05:00,
2013-01-13 07:07:00,37.1,26.8,30.09,NNW,334,9.0,13.0,66,0.00,,,0.00,VWS V14.01,2013-01-13 13:07:00,
2013-01-13 07:10:00,36.3,25.7,30.14,WNW,294,7.0,19.0,65,0.00,,,0.00,VWS V14.01,2013-01-13 13:10:00,
2013-01-13 07:12:00,37.0,26.7,30.09,NW,317,7.0,10.0,66,0.00,,,0.00,VWS V14.01,2013-01-13 13:12:00,
2013-01-13 07:15:00,36.1,25.5,30.14,NNW,341,12.0,17.0,65,0.00,,,0.00,VWS V14.01,2013-01-13 13:15:00,
2013-01-13 07:17:00,37.1,26.8,30.09,NNW,331,7.0,14.0,66,0.00,,,0.00,VWS V14.01,2013-01-13 13:17:00,
2013-01-13 07:20:00,35.8,25.2,30.15,NW,307,7.0,18.0,65,0.00,,,0.00,VWS V14.01,2013-01-13 13:20:00,
2013-01-13 07:22:00,37.1,26.8,30.10,NW,320,10.0,16.0,66,0.00,,,0.00,VWS V14.01,2013-01-13 13:22:00,
2013-01-13 07:25:00,35.7,25.5,30.15,NW,323,9.0,13.0,66,0.00,,,0.00,VWS V14.01,2013-01-13 13:25:00,
2013-01-13 07:27:00,37.1,26.8,30.11,NW,324,12.0,16.0,66,0.00,,,0.00,VWS V14.01,2013-01-13 13:27:00,
2013-01-13 07:30:00,35.6,25.4,30.15,NNW,336,13.0,18.0,66,0.00,,,0.00,VWS V14.01,2013-01-13 13:30:00,
2013-01-13 07:32:00,37.0,26.3,30.11,NNW,343,14.0,14.0,65,0.00,,,0.00,VWS V14.01,2013-01-13 13:32:00,
2013-01-13 07:35:00,35.8,25.6,30.15,NW,323,9.0,18.0,66,0.00,,,0.00,VWS V14.01,2013-01-13 13:35:00,
2013-01-13 07:37:00,36.9,26.2,30.11,NNW,333,13.0,17.0,65,0.00,,,0.00,VWS V14.01,2013-01-13 13:37:00,
2013-01-13 07:40:00,35.9,25.7,30.16,NW,322,10.0,17.0,66,0.00,,,0.00,VWS V14.01,2013-01-13 13:40:00,
2013-01-13 07:42:00,36.9,26.6,30.12,WNW,294,10.0,15.0,66,0.00,,,0.00,VWS V14.01,2013-01-13 13:42:00,
2013-01-13 07:45:00,36.0,25.8,30.16,NW,311,11.0,17.0,66,0.00,,,0.00,VWS V14.01,2013-01-13 13:45:00,
2013-01-13 07:47:00,36.9,26.6,30.12,NW,325,11.0,13.0,66,0.00,,,0.00,VWS V14.01,2013-01-13 13:47:00,
2013-01-13 07:50:00,36.1,25.1,30.16,NW,323,10.0,16.0,64,0.00,,,0.00,VWS V14.01,2013-01-13 13:50:00,
2013-01-13 07:52:00,36.9,26.2,30.13,NW,315,11.0,17.0,65,0.00,,,0.00,VWS V14.01,2013-01-13 13:52:00,
2013-01-13 07:55:00,36.5,25.5,30.17,NNW,330,12.0,18.0,64,0.00,,,0.00,VWS V14.01,2013-01-13 13:55:00,
2013-01-13 07:57:00,36.8,26.1,30.13,NW,310,8.0,16.0,65,0.00,,,0.00,VWS V14.01,2013-01-13 13:57:00,
2013-01-13 08:00:00,36.6,25.2,30.17,NW,315,11.0,23.0,63,0.00,,,0.00,VWS V14.01,2013-01-13 14:00:00,
2013-01-13 08:02:00,36.6,26.3,30.13,NW,323,9.0,14.0,66,0.00,,,0.00,VWS V14.01,2013-01-13 14:02:00,
2013-01-13 08:05:00,36.7,24.9,30.17,NW,319,17.0,22.0,62,0.00,,,0.00,VWS V14.01,2013-01-13 14:05:00,
2013-01-13 08:07:00,36.4,26.1,30.14,WNW,293,9.0,16.0,66,0.00,,,0.00,VWS V14.01,2013-01-13 14:07:00,
2013-01-13 08:10:00,36.6,24.8,30.17,NW,324,13.0,22.0,62,0.00,,,0.00,VWS V14.01,2013-01-13 14:10:00,
2013-01-13 08:12:00,36.2,25.6,30.14,NNW,332,12.0,12.0,65,0.00,,,0.00,VWS V14.01,2013-01-13 14:12:00,
2013-01-13 08:15:00,36.7,24.9,30.18,WNW,298,15.0,20.0,62,0.00,,,0.00,VWS V14.01,2013-01-13 14:15:00,
2013-01-13 08:17:00,36.0,25.8,30.14,NNW,327,14.0,14.0,66,0.00,,,0.00,VWS V14.01,2013-01-13 14:17:00,
2013-01-13 08:20:00,36.7,24.9,30.18,NNW,329,17.0,21.0,62,0.00,,,0.00,VWS V14.01,2013-01-13 14:20:00,
2013-01-13 08:22:00,35.8,25.6,30.15,WNW,294,8.0,12.0,66,0.00,,,0.00,VWS V14.01,2013-01-13 14:22:00,
2013-01-13 08:25:00,37.0,25.2,30.18,NW,323,16.0,20.0,62,0.00,,,0.00,VWS V14.01,2013-01-13 14:25:00,
2013-01-13 08:27:00,35.7,25.5,30.15,NW,322,8.0,13.0,66,0.00,,,0.00,VWS V14.01,2013-01-13 14:27:00,
2013-01-13 08:30:00,37.1,24.9,30.18,NW,311,9.0,20.0,61,0.00,,,0.00,VWS V14.01,2013-01-13 14:30:00,
2013-01-13 08:32:00,35.7,25.5,30.15,NNW,333,13.0,18.0,66,0.00,,,0.00,VWS V14.01,2013-01-13 14:32:00,
2013-01-13 08:35:00,37.3,24.7,30.18,NNW,331,20.0,23.0,60,0.00,,,0.00,VWS V14.01,2013-01-13 14:35:00,
2013-01-13 08:37:00,35.8,25.6,30.15,NNW,333,8.0,14.0,66,0.00,,,0.00,VWS V14.01,2013-01-13 14:37:00,
2013-01-13 08:40:00,37.5,24.9,30.19,NW,326,19.0,22.0,60,0.00,,,0.00,VWS V14.01,2013-01-13 14:40:00,
2013-01-13 08:42:00,35.9,25.3,30.16,NW,326,14.0,17.0,65,0.00,,,0.00,VWS V14.01,2013-01-13 14:42:00,
2013-01-13 08:45:00,37.4,24.4,30.18,NNW,343,20.0,23.0,59,0.00,,,0.00,VWS V14.01,2013-01-13 14:45:00,
2013-01-13 08:47:00,36.0,25.8,30.16,NW,309,10.0,14.0,66,0.00,,,0.00,VWS V14.01,2013-01-13 14:47:00,
2013-01-13 08:50:00,37.5,24.5,30.19,NNW,333,16.0,21.0,59,0.00,,,0.00,VWS V14.01,2013-01-13 14:50:00,
2013-01-13 08:52:00,36.2,25.2,30.16,NW,319,8.0,18.0,64,0.00,,,0.00,VWS V14.01,2013-01-13 14:52:00,
2013-01-13 08:55:00,37.8,24.8,30.19,NNE,25,11.0,21.0,59,0.00,,,0.00,VWS V14.01,2013-01-13 14:55:00,
2013-01-13 08:57:00,36.5,25.1,30.17,NW,326,18.0,18.0,63,0.00,,,0.00,VWS V14.01,2013-01-13 14:57:00,
2013-01-13 09:00:00,38.0,24.5,30.20,NNW,336,15.0,22.0,58,0.00,,,0.00,VWS V14.01,2013-01-13 15:00:00,
2013-01-13 09:02:00,36.7,25.3,30.17,NW,318,15.0,22.0,63,0.00,,,0.00,VWS V14.01,2013-01-13 15:02:00,
2013-01-13 09:05:00,38.4,24.9,30.20,North,354,8.0,18.0,58,0.00,,,0.00,VWS V14.01,2013-01-13 15:05:00,
2013-01-13 09:07:00,36.5,24.7,30.17,NW,324,16.0,22.0,62,0.00,,,0.00,VWS V14.01,2013-01-13 15:07:00,
2013-01-13 09:10:00,38.9,25.0,30.20,NW,322,13.0,21.0,57,0.00,,,0.00,VWS V14.01,2013-01-13 15:10:00,
2013-01-13 09:12:00,36.7,24.9,30.18,WNW,303,11.0,18.0,62,0.00,,,0.00,VWS V14.01,2013-01-13 15:12:00,
2013-01-13 09:15:00,38.9,25.4,30.20,NNW,334,14.0,21.0,58,0.00,,,0.00,VWS V14.01,2013-01-13 15:15:00,
2013-01-13 09:16:00,36.6,24.4,30.18,NW,317,16.0,21.0,61,0.00,,,0.00,VWS V14.01,2013-01-13 15:16:00,
2013-01-13 09:20:00,39.2,25.7,30.20,NW,311,13.0,19.0,58,0.00,,,0.00,VWS V14.01,2013-01-13 15:20:00,
2013-01-13 09:21:00,36.8,25.0,30.18,NW,307,14.0,19.0,62,0.00,,,0.00,VWS V14.01,2013-01-13 15:21:00,
2013-01-13 09:25:00,39.5,25.1,30.20,NW,322,9.0,18.0,56,0.00,,,0.00,VWS V14.01,2013-01-13 15:25:00,
2013-01-13 09:26:00,37.0,24.4,30.18,NW,312,15.0,20.0,60,0.00,,,0.00,VWS V14.01,2013-01-13 15:26:00,
2013-01-13 09:30:00,39.5,24.7,30.20,NW,326,17.0,22.0,55,0.00,,,0.00,VWS V14.01,2013-01-13 15:30:00,
2013-01-13 09:31:00,37.3,25.1,30.18,NW,323,12.0,18.0,61,0.00,,,0.00,VWS V14.01,2013-01-13 15:31:00,
2013-01-13 09:35:00,39.5,25.5,30.20,NW,324,14.0,19.0,57,0.00,,,0.00,VWS V14.01,2013-01-13 15:35:00,
2013-01-13 09:36:00,37.2,24.2,30.18,NNW,329,9.0,22.0,59,0.00,,,0.00,VWS V14.01,2013-01-13 15:36:00,
2013-01-13 09:40:00,39.9,25.9,30.20,NW,325,15.0,20.0,57,0.00,,,0.00,VWS V14.01,2013-01-13 15:40:00,
2013-01-13 09:41:00,37.4,24.4,30.19,NNW,336,15.0,22.0,59,0.00,,,0.00,VWS V14.01,2013-01-13 15:41:00,
2013-01-13 09:45:00,39.7,25.3,30.20,NW,323,10.0,19.0,56,0.00,,,0.00,VWS V14.01,2013-01-13 15:45:00,
2013-01-13 09:46:00,37.4,24.4,30.19,NNW,329,19.0,20.0,59,0.00,,,0.00,VWS V14.01,2013-01-13 15:46:00,
2013-01-13 09:50:00,40.1,25.7,30.19,NW,326,12.0,17.0,56,0.00,,,0.00,VWS V14.01,2013-01-13 15:50:00,
2013-01-13 09:51:00,37.5,24.1,30.19,NNW,336,17.0,19.0,58,0.00,,,0.00,VWS V14.01,2013-01-13 15:51:00,
2013-01-13 09:55:00,40.2,25.8,30.20,NNW,334,9.0,20.0,56,0.00,,,0.00,VWS V14.01,2013-01-13 15:55:00,
2013-01-13 09:56:00,37.8,24.4,30.19,NNW,341,11.0,22.0,58,0.00,,,0.00,VWS V14.01,2013-01-13 15:56:00,
2013-01-13 10:00:00,40.7,26.2,30.20,North,350,16.0,19.0,56,0.00,,,0.00,VWS V14.01,2013-01-13 16:00:00,
2013-01-13 10:01:00,38.0,24.5,30.19,North,1,10.0,18.0,58,0.00,,,0.00,VWS V14.01,2013-01-13 16:01:00,
2013-01-13 10:05:00,40.8,26.8,30.20,NNW,334,13.0,20.0,57,0.00,,,0.00,VWS V14.01,2013-01-13 16:05:00,
2013-01-13 10:06:00,38.7,25.2,30.20,NNW,345,19.0,19.0,58,0.00,,,0.00,VWS V14.01,2013-01-13 16:06:00,
2013-01-13 10:10:00,40.9,26.0,30.20,NNW,341,11.0,17.0,55,0.00,,,0.00,VWS V14.01,2013-01-13 16:10:00,
2013-01-13 10:11:00,38.8,24.5,30.20,NW,318,12.0,21.0,56,0.00,,,0.00,VWS V14.01,2013-01-13 16:11:00,
2013-01-13 10:15:00,41.4,27.3,30.19,NNW,348,11.0,18.0,57,0.00,,,0.00,VWS V14.01,2013-01-13 16:15:00,
2013-01-13 10:16:00,38.9,25.0,30.20,North,357,12.0,17.0,57,0.00,,,0.00,VWS V14.01,2013-01-13 16:16:00,
2013-01-13 10:20:00,41.6,26.2,30.19,NNW,328,10.0,18.0,54,0.00,,,0.00,VWS V14.01,2013-01-13 16:20:00,
2013-01-13 10:21:00,39.5,26.0,30.20,North,352,12.0,14.0,58,0.00,,,0.00,VWS V14.01,2013-01-13 16:21:00,
2013-01-13 10:25:00,41.7,26.7,30.19,NW,313,12.0,14.0,55,0.00,,,0.00,VWS V14.01,2013-01-13 16:25:00,
2013-01-13 10:26:00,39.5,25.1,30.20,NW,313,10.0,16.0,56,0.00,,,0.00,VWS V14.01,2013-01-13 16:26:00,
2013-01-13 10:30:00,41.5,26.5,30.18,NNW,330,9.0,17.0,55,0.00,,,0.00,VWS V14.01,2013-01-13 16:30:00,
2013-01-13 10:31:00,39.4,25.0,30.20,NW,310,16.0,19.0,56,0.00,,,0.00,VWS V14.01,2013-01-13 16:31:00,
2013-01-13 10:35:00,42.0,26.6,30.18,WNW,299,7.0,15.0,54,0.00,,,0.00,VWS V14.01,2013-01-13 16:35:00,
2013-01-13 10:36:00,39.7,25.3,30.20,NW,322,12.0,16.0,56,0.00,,,0.00,VWS V14.01,2013-01-13 16:36:00,
2013-01-13 10:40:00,42.1,27.1,30.18,WNW,303,12.0,21.0,55,0.00,,,0.00,VWS V14.01,2013-01-13 16:40:00,
2013-01-13 10:41:00,39.8,25.0,30.20,NNW,344,15.0,19.0,55,0.00,,,0.00,VWS V14.01,2013-01-13 16:41:00,
2013-01-13 10:45:00,42.2,26.8,30.18,NW,319,9.0,20.0,54,0.00,,,0.00,VWS V14.01,2013-01-13 16:45:00,
2013-01-13 10:46:00,39.9,25.9,30.19,NW,326,14.0,14.0,57,0.00,,,0.00,VWS V14.01,2013-01-13 16:46:00,
2013-01-13 10:50:00,42.3,26.9,30.17,North,354,9.0,20.0,54,0.00,,,0.00,VWS V14.01,2013-01-13 16:50:00,
2013-01-13 10:51:00,40.2,26.2,30.19,NW,325,17.0,18.0,57,0.00,,,0.00,VWS V14.01,2013-01-13 16:51:00,
2013-01-13 10:55:00,43.0,28.4,30.17,NNW,329,15.0,16.0,56,0.00,,,0.00,VWS V14.01,2013-01-13 16:55:00,
2013-01-13 10:56:00,40.3,25.9,30.20,NNW,327,11.0,14.0,56,0.00,,,0.00,VWS V14.01,2013-01-13 16:56:00,
2013-01-13 11:00:00,42.8,27.8,30.17,NW,307,7.0,20.0,55,0.00,,,0.00,VWS V14.01,2013-01-13 17:00:00,
2013-01-13 11:01:00,40.7,26.2,30.20,NNW,338,17.0,18.0,56,0.00,,,0.00,VWS V14.01,2013-01-13 17:01:00,
2013-01-13 11:05:00,43.5,28.4,30.17,NNW,344,15.0,16.0,55,0.00,,,0.00,VWS V14.01,2013-01-13 17:05:00,
2013-01-13 11:06:00,40.9,26.0,30.20,North,349,12.0,17.0,55,0.00,,,0.00,VWS V14.01,2013-01-13 17:06:00,
2013-01-13 11:10:00,43.5,28.0,30.17,NW,313,12.0,20.0,54,0.00,,,0.00,VWS V14.01,2013-01-13 17:10:00,
2013-01-13 11:11:00,40.9,26.0,30.19,NW,322,13.0,18.0,55,0.00,,,0.00,VWS V14.01,2013-01-13 17:11:00,
2013-01-13 11:15:00,43.8,28.7,30.16,NNW,337,14.0,18.0,55,0.00,,,0.00,VWS V14.01,2013-01-13 17:15:00,
2013-01-13 11:16:00,41.5,27.0,30.19,NW,323,10.0,15.0,56,0.00,,,0.00,VWS V14.01,2013-01-13 17:16:00,
2013-01-13 11:20:00,43.8,28.2,30.16,NNW,338,9.0,21.0,54,0.00,,,0.00,VWS V14.01,2013-01-13 17:20:00,
2013-01-13 11:21:00,41.5,26.5,30.19,NNW,329,12.0,14.0,55,0.00,,,0.00,VWS V14.01,2013-01-13 17:21:00,
2013-01-13 11:25:00,44.3,28.3,30.16,NNW,336,13.0,16.0,53,0.00,,,0.00,VWS V14.01,2013-01-13 17:25:00,
2013-01-13 11:26:00,41.7,26.7,30.18,WNW,293,14.0,17.0,55,0.00,,,0.00,VWS V14.01,2013-01-13 17:26:00,
2013-01-13 11:30:00,44.5,28.9,30.15,NNW,333,11.0,18.0,54,0.00,,,0.00,VWS V14.01,2013-01-13 17:30:00,
2013-01-13 11:31:00,41.6,27.1,30.18,North,350,7.0,11.0,56,0.00,,,0.00,VWS V14.01,2013-01-13 17:31:00,
2013-01-13 11:35:00,45.2,28.6,30.15,NW,324,18.0,18.0,52,0.00,,,0.00,VWS V14.01,2013-01-13 17:35:00,
2013-01-13 11:36:00,42.3,27.7,30.18,NNW,328,13.0,16.0,56,0.00,,,0.00,VWS V14.01,2013-01-13 17:36:00,
2013-01-13 11:40:00,45.2,28.6,30.15,NNW,338,7.0,18.0,52,0.00,,,0.00,VWS V14.01,2013-01-13 17:40:00,
2013-01-13 11:41:00,42.0,26.6,30.18,NW,311,16.0,20.0,54,0.00,,,0.00,VWS V14.01,2013-01-13 17:41:00,
2013-01-13 11:45:00,45.3,29.2,30.15,NNW,338,10.0,16.0,53,0.00,,,0.00,VWS V14.01,2013-01-13 17:45:00,
2013-01-13 11:46:00,42.3,27.7,30.18,NNW,342,7.0,11.0,56,0.00,,,0.00,VWS V14.01,2013-01-13 17:46:00,
2013-01-13 11:50:00,45.2,29.1,30.15,NNW,329,10.0,22.0,53,0.00,,,0.00,VWS V14.01,2013-01-13 17:50:00,
2013-01-13 11:51:00,42.3,26.9,30.17,NW,317,11.0,16.0,54,0.00,,,0.00,VWS V14.01,2013-01-13 17:51:00,
2013-01-13 11:55:00,45.3,29.6,30.14,NNW,333,15.0,18.0,54,0.00,,,0.00,VWS V14.01,2013-01-13 17:55:00,
2013-01-13 11:56:00,43.1,27.6,30.17,NNW,334,12.0,20.0,54,0.00,,,0.00,VWS V14.01,2013-01-13 17:56:00,
2013-01-13 12:00:00,45.5,29.4,30.14,NNW,332,14.0,20.0,53,0.00,,,0.00,VWS V14.01,2013-01-13 18:00:00,
2013-01-13 12:01:00,43.0,27.5,30.16,NNW,334,9.0,14.0,54,0.00,,,0.00,VWS V14.01,2013-01-13 18:01:00,
2013-01-13 12:05:00,45.6,29.0,30.14,North,357,12.0,19.0,52,0.00,,,0.00,VWS V14.01,2013-01-13 18:05:00,
2013-01-13 12:06:00,43.6,28.1,30.17,NNW,329,14.0,20.0,54,0.00,,,0.00,VWS V14.01,2013-01-13 18:06:00,
2013-01-13 12:10:00,46.4,30.2,30.14,NNW,338,14.0,20.0,53,0.00,,,0.00,VWS V14.01,2013-01-13 18:10:00,
2013-01-13 12:11:00,43.5,28.0,30.16,NNW,329,14.0,18.0,54,0.00,,,0.00,VWS V14.01,2013-01-13 18:11:00,
2013-01-13 12:15:00,46.0,29.4,30.14,NNW,345,16.0,20.0,52,0.00,,,0.00,VWS V14.01,2013-01-13 18:15:00,
2013-01-13 12:16:00,43.9,27.9,30.16,NW,310,13.0,21.0,53,0.00,,,0.00,VWS V14.01,2013-01-13 18:16:00,
2013-01-13 12:20:00,45.8,28.7,30.14,NNE,16,8.0,16.0,51,0.00,,,0.00,VWS V14.01,2013-01-13 18:20:00,
2013-01-13 12:21:00,44.0,28.9,30.16,NNW,332,11.0,11.0,55,0.00,,,0.00,VWS V14.01,2013-01-13 18:21:00,
2013-01-13 12:25:00,46.1,29.5,30.14,North,357,12.0,18.0,52,0.00,,,0.00,VWS V14.01,2013-01-13 18:25:00,
2013-01-13 12:26:00,44.3,28.7,30.15,North,360,10.0,18.0,54,0.00,,,0.00,VWS V14.01,2013-01-13 18:26:00,
2013-01-13 12:30:00,46.6,29.5,30.13,North,355,11.0,16.0,51,0.00,,,0.00,VWS V14.01,2013-01-13 18:30:00,
2013-01-13 12:31:00,44.7,29.1,30.15,NNW,336,10.0,15.0,54,0.00,,,0.00,VWS V14.01,2013-01-13 18:31:00,
2013-01-13 12:35:00,46.9,29.2,30.13,NNW,330,9.0,14.0,50,0.00,,,0.00,VWS V14.01,2013-01-13 18:35:00,
2013-01-13 12:36:00,45.1,28.5,30.15,NNW,345,10.0,18.0,52,0.00,,,0.00,VWS V14.01,2013-01-13 18:36:00,
2013-01-13 12:40:00,46.9,30.2,30.13,NNW,330,9.0,20.0,52,0.00,,,0.00,VWS V14.01,2013-01-13 18:40:00,
2013-01-13 12:41:00,45.3,29.6,30.15,North,2,10.0,14.0,54,0.00,,,0.00,VWS V14.01,2013-01-13 18:41:00,
2013-01-13 12:45:00,46.9,29.7,30.13,North,1,13.0,19.0,51,0.00,,,0.00,VWS V14.01,2013-01-13 18:45:00,
2013-01-13 12:46:00,45.4,29.7,30.15,NNW,336,11.0,19.0,54,0.00,,,0.00,VWS V14.01,2013-01-13 18:46:00,
2013-01-13 12:50:00,47.1,30.4,30.13,North,355,9.0,16.0,52,0.00,,,0.00,VWS V14.01,2013-01-13 18:50:00,
2013-01-13 12:51:00,45.2,29.1,30.15,NNW,336,13.0,16.0,53,0.00,,,0.00,VWS V14.01,2013-01-13 18:51:00,
2013-01-13 12:55:00,47.0,29.8,30.12,WNW,291,6.0,17.0,51,0.00,,,0.00,VWS V14.01,2013-01-13 18:55:00,
2013-01-13 12:56:00,45.3,29.2,30.14,NNW,335,12.0,16.0,53,0.00,,,0.00,VWS V14.01,2013-01-13 18:56:00,
2013-01-13 13:00:00,47.5,29.8,30.12,NW,305,13.0,18.0,50,0.00,,,0.00,VWS V14.01,2013-01-13 19:00:00,
2013-01-13 13:01:00,45.5,29.4,30.14,NW,322,15.0,19.0,53,0.00,,,0.00,VWS V14.01,2013-01-13 19:01:00,
2013-01-13 13:05:00,47.5,29.8,30.12,NNW,343,8.0,20.0,50,0.00,,,0.00,VWS V14.01,2013-01-13 19:05:00,
2013-01-13 13:06:00,45.6,29.5,30.14,NNW,333,8.0,12.0,53,0.00,,,0.00,VWS V14.01,2013-01-13 19:06:00,
2013-01-13 13:10:00,48.1,30.8,30.12,NNW,348,9.0,11.0,51,0.00,,,0.00,VWS V14.01,2013-01-13 19:10:00,
2013-01-13 13:11:00,46.3,29.6,30.14,NNW,328,20.0,20.0,52,0.00,,,0.00,VWS V14.01,2013-01-13 19:11:00,
2013-01-13 13:15:00,48.2,30.5,30.12,NNE,19,15.0,16.0,50,0.00,,,0.00,VWS V14.01,2013-01-13 19:15:00,
2013-01-13 13:16:00,46.1,29.9,30.14,NNW,347,16.0,16.0,53,0.00,,,0.00,VWS V14.01,2013-01-13 19:16:00,
2013-01-13 13:20:00,47.8,29.6,30.12,North,355,10.0,19.0,49,0.00,,,0.00,VWS V14.01,2013-01-13 19:20:00,
2013-01-13 13:21:00,45.9,29.8,30.14,NW,324,12.0,14.0,53,0.00,,,0.00,VWS V14.01,2013-01-13 19:21:00,
2013-01-13 13:25:00,47.5,30.3,30.12,North,349,9.0,17.0,51,0.00,,,0.00,VWS V14.01,2013-01-13 19:25:00,
2013-01-13 13:26:00,46.1,29.5,30.13,North,7,14.0,15.0,52,0.00,,,0.00,VWS V14.01,2013-01-13 19:26:00,
2013-01-13 13:30:00,48.0,30.8,30.12,NNW,327,11.0,17.0,51,0.00,,,0.00,VWS V14.01,2013-01-13 19:30:00,
2013-01-13 13:31:00,46.5,29.4,30.14,North,355,7.0,13.0,51,0.00,,,0.00,VWS V14.01,2013-01-13 19:31:00,
2013-01-13 13:35:00,48.2,30.5,30.12,North,355,9.0,21.0,50,0.00,,,0.00,VWS V14.01,2013-01-13 19:35:00,
2013-01-13 13:36:00,46.9,29.7,30.13,North,355,10.0,15.0,51,0.00,,,0.00,VWS V14.01,2013-01-13 19:36:00,
2013-01-13 13:40:00,48.7,30.9,30.12,North,2,10.0,14.0,50,0.00,,,0.00,VWS V14.01,2013-01-13 19:40:00,
2013-01-13 13:41:00,47.0,29.8,30.13,North,359,9.0,14.0,51,0.00,,,0.00,VWS V14.01,2013-01-13 19:41:00,
2013-01-13 13:45:00,48.6,30.8,30.12,NNE,21,13.0,17.0,50,0.00,,,0.00,VWS V14.01,2013-01-13 19:45:00,
2013-01-13 13:46:00,46.8,29.6,30.13,NNE,16,9.0,16.0,51,0.00,,,0.00,VWS V14.01,2013-01-13 19:46:00,
2013-01-13 13:50:00,48.8,31.0,30.12,NNE,29,8.0,14.0,50,0.00,,,0.00,VWS V14.01,2013-01-13 19:50:00,
2013-01-13 13:51:00,47.1,29.4,30.13,North,355,14.0,15.0,50,0.00,,,0.00,VWS V14.01,2013-01-13 19:51:00,
2013-01-13 13:55:00,48.9,31.1,30.12,North,0,10.0,14.0,50,0.00,,,0.00,VWS V14.01,2013-01-13 19:55:00,
2013-01-13 13:56:00,47.1,29.9,30.12,North,355,6.0,12.0,51,0.00,,,0.00,VWS V14.01,2013-01-13 19:56:00,
2013-01-13 14:00:00,49.0,30.2,30.12,North,0,12.0,18.0,48,0.00,,,0.00,VWS V14.01,2013-01-13 20:00:00,
2013-01-13 14:01:00,47.5,29.8,30.12,NNW,343,17.0,17.0,50,0.00,,,0.00,VWS V14.01,2013-01-13 20:01:00,
2013-01-13 14:05:00,48.8,30.0,30.13,North,0,10.0,20.0,48,0.00,,,0.00,VWS V14.01,2013-01-13 20:05:00,
2013-01-13 14:06:00,47.5,30.3,30.12,NW,325,9.0,9.0,51,0.00,,,0.00,VWS V14.01,2013-01-13 20:06:00,
2013-01-13 14:10:00,48.8,29.5,30.13,North,0,13.0,19.0,47,0.00,,,0.00,VWS V14.01,2013-01-13 20:10:00,
2013-01-13 14:11:00,48.3,31.5,30.12,North,355,12.0,13.0,52,0.00,,,0.00,VWS V14.01,2013-01-13 20:11:00,
2013-01-13 14:15:00,48.7,29.4,30.13,North,0,13.0,20.0,47,0.00,,,0.00,VWS V14.01,2013-01-13 20:15:00,
2013-01-13 14:16:00,48.2,30.5,30.12,NNW,346,12.0,19.0,50,0.00,,,0.00,VWS V14.01,2013-01-13 20:16:00,
2013-01-13 14:20:00,48.9,29.6,30.13,NNW,338,12.0,19.0,47,0.00,,,0.00,VWS V14.01,2013-01-13 20:20:00,
2013-01-13 14:21:00,47.6,29.9,30.12,North,355,11.0,14.0,50,0.00,,,0.00,VWS V14.01,2013-01-13 20:21:00,
2013-01-13 14:25:00,49.1,28.7,30.13,North,0,10.0,17.0,45,0.00,,,0.00,VWS V14.01,2013-01-13 20:25:00,
2013-01-13 14:26:00,47.5,30.3,30.12,NNW,337,12.0,16.0,51,0.00,,,0.00,VWS V14.01,2013-01-13 20:26:00,
2013-01-13 14:30:00,49.1,29.2,30.13,North,0,9.0,16.0,46,0.00,,,0.00,VWS V14.01,2013-01-13 20:30:00,
2013-01-13 14:31:00,48.1,30.8,30.12,NNW,338,15.0,21.0,51,0.00,,,0.00,VWS V14.01,2013-01-13 20:31:00,
2013-01-13 14:36:00,48.4,31.6,30.12,North,357,10.0,12.0,52,0.00,,,0.00,VWS V14.01,2013-01-13 20:36:00,
2013-01-13 14:40:00,48.7,27.8,30.12,North,360,8.0,9.0,44,0.00,,,0.00,VWS V14.01,2013-01-13 20:40:00,
2013-01-13 14:41:00,48.8,31.5,30.12,North,355,14.0,16.0,51,0.00,,,0.00,VWS V14.01,2013-01-13 20:41:00,
2013-01-13 14:45:00,48.7,27.8,30.13,North,2,8.0,17.0,44,0.00,,,0.00,VWS V14.01,2013-01-13 20:45:00,
2013-01-13 14:46:00,48.6,30.8,30.12,NNE,21,11.0,13.0,50,0.00,,,0.00,VWS V14.01,2013-01-13 20:46:00,
2013-01-13 14:50:00,49.3,28.9,30.13,NE,44,12.0,14.0,45,0.00,,,0.00,VWS V14.01,2013-01-13 20:50:00,
2013-01-13 14:51:00,48.8,31.0,30.12,North,8,11.0,13.0,50,0.00,,,0.00,VWS V14.01,2013-01-13 20:51:00,
2013-01-13 14:55:00,48.9,31.1,30.12,North,0,10.0,14.0,50,0.00,,,0.00,VWS V14.01,2013-01-13 20:55:00,
2013-01-13 15:00:00,49.0,30.2,30.12,North,0,12.0,18.0,48,0.00,,,0.00,VWS V14.01,2013-01-13 21:00:00,
2013-01-13 15:05:00,48.8,30.0,30.13,North,0,10.0,20.0,48,0.00,,,0.00,VWS V14.01,2013-01-13 21:05:00,
2013-01-13 15:10:00,48.8,29.5,30.13,North,0,13.0,19.0,47,0.00,,,0.00,VWS V14.01,2013-01-13 21:10:00,
2013-01-13 15:15:00,48.7,29.4,30.13,North,0,13.0,20.0,47,0.00,,,0.00,VWS V14.01,2013-01-13 21:15:00,
2013-01-13 15:20:00,48.9,29.6,30.13,NNW,338,12.0,19.0,47,0.00,,,0.00,VWS V14.01,2013-01-13 21:20:00,
2013-01-13 15:25:00,49.1,28.7,30.13,North,0,10.0,17.0,45,0.00,,,0.00,VWS V14.01,2013-01-13 21:25:00,
2013-01-13 15:30:00,49.1,29.2,30.13,North,0,9.0,16.0,46,0.00,,,0.00,VWS V14.01,2013-01-13 21:30:00,
2013-01-13 15:35:00,48.9,28.0,30.14,NNE,18,5.0,18.0,44,0.00,,,0.00,VWS V14.01,2013-01-13 21:35:00,
2013-01-13 15:40:00,48.7,27.8,30.12,North,360,8.0,9.0,44,0.00,,,0.00,VWS V14.01,2013-01-13 21:40:00,
2013-01-13 15:45:00,48.7,27.8,30.13,North,357,7.0,8.0,44,0.00,,,0.00,VWS V14.01,2013-01-13 21:45:00,
2013-01-13 15:50:00,49.3,28.9,30.13,NE,40,10.0,12.0,45,0.00,,,0.00,VWS V14.01,2013-01-13 21:50:00,
2013-01-13 15:55:00,49.0,28.6,30.13,North,11,13.0,13.0,45,0.00,,,0.00,VWS V14.01,2013-01-13 21:55:00,
2013-01-13 16:00:00,48.9,28.5,30.13,North,7,16.0,18.0,45,0.00,,,0.00,VWS V14.01,2013-01-13 22:00:00,
2013-01-13 16:05:00,48.9,28.0,30.13,North,11,11.0,11.0,44,0.00,,,0.00,VWS V14.01,2013-01-13 22:05:00,
2013-01-13 16:10:00,49.0,28.0,30.13,NNE,19,10.0,14.0,44,0.00,,,0.00,VWS V14.01,2013-01-13 22:10:00,
2013-01-13 16:15:00,49.0,28.0,30.14,NNE,22,8.0,8.0,44,0.00,,,0.00,VWS V14.01,2013-01-13 22:15:00,
2013-01-13 16:20:00,49.0,28.0,30.14,North,1,12.0,12.0,44,0.00,,,0.00,VWS V14.01,2013-01-13 22:20:00,
2013-01-13 16:25:00,49.0,28.0,30.14,North,352,14.0,14.0,44,0.00,,,0.00,VWS V14.01,2013-01-13 22:25:00,
2013-01-13 16:30:00,49.1,28.1,30.14,NNE,16,14.0,14.0,44,0.00,,,0.00,VWS V14.01,2013-01-13 22:30:00,
2013-01-13 16:35:00,48.9,28.0,30.14,NNE,21,7.0,7.0,44,0.00,,,0.00,VWS V14.01,2013-01-13 22:35:00,
2013-01-13 16:40:00,48.8,27.3,30.14,NE,43,5.0,9.0,43,0.00,,,0.00,VWS V14.01,2013-01-13 22:40:00,
2013-01-13 16:45:00,48.6,27.1,30.14,North,9,11.0,11.0,43,0.00,,,0.00,VWS V14.01,2013-01-13 22:45:00,
2013-01-13 16:50:00,48.6,27.1,30.15,North,2,10.0,10.0,43,0.00,,,0.00,VWS V14.01,2013-01-13 22:50:00,
2013-01-13 16:55:00,48.6,27.7,30.15,North,9,6.0,6.0,44,0.00,,,0.00,VWS V14.01,2013-01-13 22:55:00,
2013-01-13 17:00:00,48.5,27.6,30.15,NNE,16,6.0,6.0,44,0.00,,,0.00,VWS V14.01,2013-01-13 23:00:00,
2013-01-13 17:05:00,48.3,27.4,30.16,NNE,19,8.0,8.0,44,0.00,,,0.00,VWS V14.01,2013-01-13 23:05:00,
2013-01-13 17:10:00,48.1,27.2,30.16,North,7,13.0,13.0,44,0.00,,,0.00,VWS V14.01,2013-01-13 23:10:00,
2013-01-13 17:15:00,47.8,27.5,30.15,North,2,6.0,6.0,45,0.00,,,0.00,VWS V14.01,2013-01-13 23:15:00,
2013-01-13 17:20:00,47.5,26.7,30.16,NNE,18,5.0,16.0,44,0.00,,,0.00,VWS V14.01,2013-01-13 23:20:00,
2013-01-13 17:25:00,47.2,27.0,30.15,NE,38,8.0,15.0,45,0.00,,,0.00,VWS V14.01,2013-01-13 23:25:00,
2013-01-13 17:30:00,46.9,26.7,30.16,NNE,21,10.0,15.0,45,0.00,,,0.00,VWS V14.01,2013-01-13 23:30:00,
2013-01-13 17:35:00,46.7,26.5,30.16,North,4,11.0,14.0,45,0.00,,,0.00,VWS V14.01,2013-01-13 23:35:00,
2013-01-13 17:40:00,46.4,26.8,30.16,North,11,8.0,16.0,46,0.00,,,0.00,VWS V14.01,2013-01-13 23:40:00,
2013-01-13 17:45:00,46.2,26.6,30.16,NNW,331,6.0,14.0,46,0.00,,,0.00,VWS V14.01,2013-01-13 23:45:00,
2013-01-13 17:50:00,45.7,26.6,30.16,North,360,6.0,12.0,47,0.00,,,0.00,VWS V14.01,2013-01-13 23:50:00,
2013-01-13 17:55:00,45.4,26.9,30.16,North,6,5.0,11.0,48,0.00,,,0.00,VWS V14.01,2013-01-13 23:55:00,
2013-01-13 18:00:00,45.0,26.5,30.16,North,360,7.0,9.0,48,0.00,,,0.00,VWS V14.01,2013-01-14 00:00:00,
2013-01-13 18:05:00,44.7,26.7,30.16,North,8,5.0,8.0,49,0.00,,,0.00,VWS V14.01,2013-01-14 00:05:00,
2013-01-13 18:10:00,44.4,26.5,30.16,North,3,5.0,8.0,49,0.00,,,0.00,VWS V14.01,2013-01-14 00:10:00,
2013-01-13 18:15:00,44.1,26.2,30.16,North,11,5.0,8.0,49,0.00,,,0.00,VWS V14.01,2013-01-14 00:15:00,
2013-01-13 18:20:00,43.9,26.5,30.17,North,1,5.0,8.0,50,0.00,,,0.00,VWS V14.01,2013-01-14 00:20:00,
2013-01-13 18:25:00,43.7,26.3,30.17,North,4,5.0,8.0,50,0.00,,,0.00,VWS V14.01,2013-01-14 00:25:00,
2013-01-13 18:30:00,43.6,26.7,30.17,North,11,6.0,10.0,51,0.00,,,0.00,VWS V14.01,2013-01-14 00:30:00,
2013-01-13 18:35:00,43.3,26.4,30.17,North,4,5.0,8.0,51,0.00,,,0.00,VWS V14.01,2013-01-14 00:35:00,
2013-01-13 18:40:00,43.1,26.2,30.17,North,8,5.0,8.0,51,0.00,,,0.00,VWS V14.01,2013-01-14 00:40:00,
2013-01-13 18:45:00,42.9,26.5,30.17,North,8,4.0,7.0,52,0.00,,,0.00,VWS V14.01,2013-01-14 00:45:00,
2013-01-13 18:50:00,42.8,26.4,30.17,North,7,5.0,8.0,52,0.00,,,0.00,VWS V14.01,2013-01-14 00:50:00,
2013-01-13 18:55:00,42.5,26.1,30.17,North,7,4.0,7.0,52,0.00,,,0.00,VWS V14.01,2013-01-14 00:55:00,
2013-01-13 19:00:00,42.2,26.3,30.17,North,4,5.0,6.0,53,0.00,,,0.00,VWS V14.01,2013-01-14 01:00:00,
2013-01-13 19:05:00,42.0,26.1,30.17,North,1,5.0,9.0,53,0.00,,,0.00,VWS V14.01,2013-01-14 01:05:00,
2013-01-13 19:10:00,41.8,26.4,30.17,North,357,5.0,6.0,54,0.00,,,0.00,VWS V14.01,2013-01-14 01:10:00,
2013-01-13 19:15:00,41.7,26.3,30.17,North,5,4.0,7.0,54,0.00,,,0.00,VWS V14.01,2013-01-14 01:15:00,
2013-01-13 19:20:00,41.7,26.3,30.17,North,6,4.0,10.0,54,0.00,,,0.00,VWS V14.01,2013-01-14 01:20:00,
2013-01-13 19:25:00,41.5,26.1,30.17,North,4,5.0,8.0,54,0.00,,,0.00,VWS V14.01,2013-01-14 01:25:00,
2013-01-13 19:30:00,41.3,26.4,30.18,North,4,5.0,9.0,55,0.00,,,0.00,VWS V14.01,2013-01-14 01:30:00,
2013-01-13 19:35:00,41.2,26.3,30.18,NNW,347,5.0,8.0,55,0.00,,,0.00,VWS V14.01,2013-01-14 01:35:00,
2013-01-13 19:40:00,41.1,26.2,30.19,North,5,4.0,8.0,55,0.00,,,0.00,VWS V14.01,2013-01-14 01:40:00,
2013-01-13 19:45:00,40.7,26.2,30.19,North,355,7.0,7.0,56,0.00,,,0.00,VWS V14.01,2013-01-14 01:45:00,
2013-01-13 19:50:00,40.6,26.1,30.19,North,5,2.0,5.0,56,0.00,,,0.00,VWS V14.01,2013-01-14 01:50:00,
2013-01-13 19:55:00,40.5,26.0,30.20,North,7,5.0,10.0,56,0.00,,,0.00,VWS V14.01,2013-01-14 01:55:00,
2013-01-13 20:00:00,40.4,26.4,30.20,North,358,7.0,10.0,57,0.00,,,0.00,VWS V14.01,2013-01-14 02:00:00,
2013-01-13 20:05:00,40.3,26.3,30.20,North,1,4.0,7.0,57,0.00,,,0.00,VWS V14.01,2013-01-14 02:05:00,
2013-01-13 20:10:00,40.1,26.5,30.20,North,4,4.0,6.0,58,0.00,,,0.00,VWS V14.01,2013-01-14 02:10:00,
2013-01-13 20:14:00,39.9,26.3,30.20,North,11,3.0,9.0,58,0.00,,,0.00,VWS V14.01,2013-01-14 02:14:00,
2013-01-13 20:15:00,38.4,26.1,30.21,NNE,18,4.0,7.0,61,0.00,,,0.00,VWS V14.01,2013-01-14 02:15:00,
2013-01-13 20:19:00,39.7,26.1,30.20,North,355,4.0,5.0,58,0.00,,,0.00,VWS V14.01,2013-01-14 02:19:00,
2013-01-13 20:20:00,38.4,25.7,30.21,NNE,16,6.0,11.0,60,0.00,,,0.00,VWS V14.01,2013-01-14 02:20:00,
2013-01-13 20:24:00,39.5,26.4,30.20,North,355,5.0,6.0,59,0.00,,,0.00,VWS V14.01,2013-01-14 02:24:00,
2013-01-13 20:25:00,38.5,25.8,30.22,NNE,18,5.0,15.0,60,0.00,,,0.00,VWS V14.01,2013-01-14 02:25:00,
2013-01-13 20:29:00,39.4,26.3,30.20,North,8,6.0,9.0,59,0.00,,,0.00,VWS V14.01,2013-01-14 02:29:00,
2013-01-13 20:30:00,38.3,26.0,30.22,North,9,6.0,7.0,61,0.00,,,0.00,VWS V14.01,2013-01-14 02:30:00,
2013-01-13 20:34:00,39.3,26.2,30.20,North,351,4.0,6.0,59,0.00,,,0.00,VWS V14.01,2013-01-14 02:34:00,
2013-01-13 20:35:00,38.3,25.6,30.22,North,10,5.0,10.0,60,0.00,,,0.00,VWS V14.01,2013-01-14 02:35:00,
2013-01-13 20:39:00,39.2,26.5,30.20,North,1,4.0,8.0,60,0.00,,,0.00,VWS V14.01,2013-01-14 02:39:00,
2013-01-13 20:40:00,38.0,25.8,30.22,North,5,5.0,10.0,61,0.00,,,0.00,VWS V14.01,2013-01-14 02:40:00,
2013-01-13 20:44:00,39.0,26.7,30.20,North,360,3.0,6.0,61,0.00,,,0.00,VWS V14.01,2013-01-14 02:44:00,
2013-01-13 20:45:00,38.0,25.8,30.22,North,9,5.0,10.0,61,0.00,,,0.00,VWS V14.01,2013-01-14 02:45:00,
2013-01-13 20:49:00,38.7,26.4,30.20,North,358,3.0,7.0,61,0.00,,,0.00,VWS V14.01,2013-01-14 02:49:00,
2013-01-13 20:50:00,38.0,25.4,30.22,NNE,15,6.0,11.0,60,0.00,,,0.00,VWS V14.01,2013-01-14 02:50:00,
2013-01-13 20:54:00,38.7,26.4,30.20,North,11,4.0,10.0,61,0.00,,,0.00,VWS V14.01,2013-01-14 02:54:00,
2013-01-13 20:55:00,37.9,25.7,30.22,NNE,14,8.0,14.0,61,0.00,,,0.00,VWS V14.01,2013-01-14 02:55:00,
2013-01-13 20:59:00,38.6,26.3,30.20,NNE,21,6.0,8.0,61,0.00,,,0.00,VWS V14.01,2013-01-14 02:59:00,
2013-01-13 21:00:00,37.7,25.5,30.22,NNE,21,6.0,15.0,61,0.00,,,0.00,VWS V14.01,2013-01-14 03:00:00,
2013-01-13 21:04:00,38.6,26.3,30.20,NNE,18,6.0,10.0,61,0.00,,,0.00,VWS V14.01,2013-01-14 03:04:00,
2013-01-13 21:05:00,37.5,25.3,30.22,NNE,19,5.0,12.0,61,0.00,,,0.00,VWS V14.01,2013-01-14 03:05:00,
2013-01-13 21:09:00,38.6,26.3,30.21,North,10,6.0,9.0,61,0.00,,,0.00,VWS V14.01,2013-01-14 03:09:00,
2013-01-13 21:10:00,37.3,25.5,30.22,NNE,26,7.0,12.0,62,0.00,,,0.00,VWS V14.01,2013-01-14 03:10:00,
2013-01-13 21:14:00,38.5,26.2,30.21,NNE,16,4.0,7.0,61,0.00,,,0.00,VWS V14.01,2013-01-14 03:14:00,
2013-01-13 21:15:00,37.2,25.4,30.22,North,4,10.0,12.0,62,0.00,,,0.00,VWS V14.01,2013-01-14 03:15:00,
2013-01-13 21:19:00,38.4,25.7,30.21,NNE,14,9.0,11.0,60,0.00,,,0.00,VWS V14.01,2013-01-14 03:19:00,
2013-01-13 21:20:00,37.1,25.3,30.22,North,2,6.0,12.0,62,0.00,,,0.00,VWS V14.01,2013-01-14 03:20:00,
2013-01-13 21:24:00,38.5,25.8,30.22,North,11,9.0,15.0,60,0.00,,,0.00,VWS V14.01,2013-01-14 03:24:00,
2013-01-13 21:25:00,36.8,25.0,30.22,NNE,23,7.0,9.0,62,0.00,,,0.00,VWS V14.01,2013-01-14 03:25:00,
2013-01-13 21:29:00,38.3,25.6,30.22,North,2,6.0,7.0,60,0.00,,,0.00,VWS V14.01,2013-01-14 03:29:00,
2013-01-13 21:30:00,36.8,25.0,30.22,North,360,10.0,12.0,62,0.00,,,0.00,VWS V14.01,2013-01-14 03:30:00,
2013-01-13 21:34:00,38.2,25.5,30.22,North,4,5.0,10.0,60,0.00,,,0.00,VWS V14.01,2013-01-14 03:34:00,
2013-01-13 21:35:00,36.7,24.9,30.22,North,359,8.0,12.0,62,0.00,,,0.00,VWS V14.01,2013-01-14 03:35:00,
2013-01-13 21:39:00,38.1,25.9,30.22,North,8,4.0,10.0,61,0.00,,,0.00,VWS V14.01,2013-01-14 03:39:00,
2013-01-13 21:40:00,36.6,24.8,30.22,North,351,9.0,13.0,62,0.00,,,0.00,VWS V14.01,2013-01-14 03:40:00,
2013-01-13 21:44:00,38.0,25.8,30.22,NNE,21,6.0,10.0,61,0.00,,,0.00,VWS V14.01,2013-01-14 03:44:00,
2013-01-13 21:45:00,36.5,24.7,30.22,North,352,8.0,14.0,62,0.00,,,0.00,VWS V14.01,2013-01-14 03:45:00,
2013-01-13 21:49:00,38.0,25.4,30.22,NNE,20,8.0,11.0,60,0.00,,,0.00,VWS V14.01,2013-01-14 03:49:00,
2013-01-13 21:50:00,36.4,24.2,30.21,North,5,6.0,13.0,61,0.00,,,0.00,VWS V14.01,2013-01-14 03:50:00,
2013-01-13 21:54:00,37.9,25.7,30.22,NNE,22,7.0,14.0,61,0.00,,,0.00,VWS V14.01,2013-01-14 03:54:00,
2013-01-13 21:55:00,36.3,24.2,30.21,North,355,4.0,17.0,61,0.00,,,0.00,VWS V14.01,2013-01-14 03:55:00,
2013-01-13 21:59:00,37.8,25.6,30.22,NNE,18,9.0,15.0,61,0.00,,,0.00,VWS V14.01,2013-01-14 03:59:00,
2013-01-13 22:00:00,36.3,24.2,30.21,NNE,18,3.0,12.0,61,0.00,,,0.00,VWS V14.01,2013-01-14 04:00:00,
2013-01-13 22:04:00,37.6,25.4,30.22,North,4,7.0,12.0,61,0.00,,,0.00,VWS V14.01,2013-01-14 04:04:00,
2013-01-13 22:05:00,36.1,24.0,30.21,North,350,10.0,12.0,61,0.00,,,0.00,VWS V14.01,2013-01-14 04:05:00,
2013-01-13 22:09:00,37.3,25.5,30.22,NNE,14,6.0,12.0,62,0.00,,,0.00,VWS V14.01,2013-01-14 04:09:00,
2013-01-13 22:10:00,36.1,24.0,30.21,North,355,6.0,12.0,61,0.00,,,0.00,VWS V14.01,2013-01-14 04:10:00,
2013-01-13 22:14:00,37.2,25.4,30.22,North,7,7.0,12.0,62,0.00,,,0.00,VWS V14.01,2013-01-14 04:14:00,
2013-01-13 22:15:00,35.9,23.8,30.22,NNE,19,8.0,14.0,61,0.00,,,0.00,VWS V14.01,2013-01-14 04:15:00,
2013-01-13 22:19:00,37.1,25.3,30.22,NNE,18,6.0,12.0,62,0.00,,,0.00,VWS V14.01,2013-01-14 04:19:00,
2013-01-13 22:20:00,35.8,23.7,30.21,North,11,12.0,16.0,61,0.00,,,0.00,VWS V14.01,2013-01-14 04:20:00,
2013-01-13 22:24:00,36.9,25.1,30.22,North,360,7.0,8.0,62,0.00,,,0.00,VWS V14.01,2013-01-14 04:24:00,
2013-01-13 22:25:00,35.8,23.3,30.21,NNE,13,11.0,20.0,60,0.00,,,0.00,VWS V14.01,2013-01-14 04:25:00,
2013-01-13 22:29:00,36.7,24.9,30.22,North,5,6.0,12.0,62,0.00,,,0.00,VWS V14.01,2013-01-14 04:29:00,
2013-01-13 22:30:00,35.7,23.2,30.21,North,8,10.0,18.0,60,0.00,,,0.00,VWS V14.01,2013-01-14 04:30:00,
2013-01-13 22:34:00,36.7,24.9,30.22,NNE,18,8.0,12.0,62,0.00,,,0.00,VWS V14.01,2013-01-14 04:34:00,
2013-01-13 22:35:00,35.6,23.1,30.21,North,355,11.0,15.0,60,0.00,,,0.00,VWS V14.01,2013-01-14 04:35:00,
2013-01-13 22:39:00,36.7,24.9,30.22,North,9,7.0,13.0,62,0.00,,,0.00,VWS V14.01,2013-01-14 04:39:00,
2013-01-13 22:40:00,35.5,23.0,30.21,North,9,8.0,16.0,60,0.00,,,0.00,VWS V14.01,2013-01-14 04:40:00,
2013-01-13 22:44:00,36.5,24.7,30.22,North,5,9.0,14.0,62,0.00,,,0.00,VWS V14.01,2013-01-14 04:44:00,
2013-01-13 22:45:00,35.4,22.9,30.21,North,11,11.0,17.0,60,0.00,,,0.00,VWS V14.01,2013-01-14 04:45:00,
2013-01-13 22:49:00,36.5,24.3,30.21,North,4,8.0,13.0,61,0.00,,,0.00,VWS V14.01,2013-01-14 04:49:00,
2013-01-13 22:50:00,35.3,22.8,30.20,North,9,7.0,14.0,60,0.00,,,0.00,VWS V14.01,2013-01-14 04:50:00,
2013-01-13 22:54:00,36.3,24.1,30.21,North,352,6.0,17.0,61,0.00,,,0.00,VWS V14.01,2013-01-14 04:54:00,
2013-01-13 22:55:00,35.2,22.3,30.21,North,11,10.0,16.0,59,0.00,,,0.00,VWS V14.01,2013-01-14 04:55:00,
2013-01-13 22:59:00,36.2,24.1,30.21,North,352,8.0,12.0,61,0.00,,,0.00,VWS V14.01,2013-01-14 04:59:00,
2013-01-13 23:00:00,36.3,24.1,30.21,NNE,18,3.0,12.0,61,0.00,,,0.00,VWS V14.01,2013-01-14 05:00:00,
2013-01-13 23:01:00,36.2,24.1,30.21,North,4,10.0,10.0,61,0.00,,,0.00,VWS V14.01,2013-01-14 05:01:00,
2013-01-13 23:03:00,36.2,24.1,30.21,North,350,11.0,12.0,61,0.00,,,0.00,VWS V14.01,2013-01-14 05:03:00,
2013-01-13 23:05:00,35.0,22.1,30.21,North,1,11.0,16.0,59,0.00,,,0.00,VWS V14.01,2013-01-14 05:05:00,
2013-01-13 23:08:00,36.1,24.0,30.21,North,349,7.0,12.0,61,0.00,,,0.00,VWS V14.01,2013-01-14 05:08:00,
2013-01-13 23:10:00,34.9,22.0,30.21,North,8,6.0,12.0,59,0.00,,,0.00,VWS V14.01,2013-01-14 05:10:00,
2013-01-13 23:13:00,36.0,23.9,30.22,North,4,12.0,14.0,61,0.00,,,0.00,VWS V14.01,2013-01-14 05:13:00,
2013-01-13 23:15:00,34.9,21.6,30.21,NNE,20,7.0,15.0,58,0.00,,,0.00,VWS V14.01,2013-01-14 05:15:00,
2013-01-13 23:18:00,35.8,23.7,30.22,North,2,14.0,14.0,61,0.00,,,0.00,VWS V14.01,2013-01-14 05:18:00,
2013-01-13 23:20:00,34.8,21.5,30.21,NE,40,3.0,12.0,58,0.00,,,0.00,VWS V14.01,2013-01-14 05:20:00,
2013-01-13 23:23:00,35.8,23.3,30.22,North,8,8.0,14.0,60,0.00,,,0.00,VWS V14.01,2013-01-14 05:23:00,
2013-01-13 23:25:00,34.7,21.9,30.22,North,350,4.0,12.0,59,0.00,,,0.00,VWS V14.01,2013-01-14 05:25:00,
2013-01-13 23:28:00,35.7,23.2,30.21,North,1,8.0,18.0,60,0.00,,,0.00,VWS V14.01,2013-01-14 05:28:00,
2013-01-13 23:30:00,34.6,21.8,30.22,NNW,345,6.0,8.0,59,0.00,,,0.00,VWS V14.01,2013-01-14 05:30:00,
2013-01-13 23:33:00,35.7,23.2,30.21,North,360,8.0,11.0,60,0.00,,,0.00,VWS V14.01,2013-01-14 05:33:00,
2013-01-13 23:35:00,34.5,21.7,30.22,NNE,16,8.0,11.0,59,0.00,,,0.00,VWS V14.01,2013-01-14 05:35:00,
2013-01-13 23:38:00,35.5,23.0,30.21,North,357,14.0,16.0,60,0.00,,,0.00,VWS V14.01,2013-01-14 05:38:00,
2013-01-13 23:40:00,34.5,22.1,30.22,North,11,7.0,13.0,60,0.00,,,0.00,VWS V14.01,2013-01-14 05:40:00,
2013-01-13 23:43:00,35.4,22.9,30.21,North,360,16.0,17.0,60,0.00,,,0.00,VWS V14.01,2013-01-14 05:43:00,
2013-01-13 23:45:00,34.4,22.0,30.22,NNE,16,4.0,10.0,60,0.00,,,0.00,VWS V14.01,2013-01-14 05:45:00,
2013-01-13 23:48:00,35.3,22.8,30.20,NNE,15,14.0,14.0,60,0.00,,,0.00,VWS V14.01,2013-01-14 05:48:00,
2013-01-13 23:50:00,34.3,21.9,30.23,NNW,348,3.0,5.0,60,0.00,,,0.00,VWS V14.01,2013-01-14 05:50:00,
2013-01-13 23:53:00,35.2,22.3,30.21,North,357,10.0,16.0,59,0.00,,,0.00,VWS V14.01,2013-01-14 05:53:00,
2013-01-13 23:55:00,34.2,21.8,30.23,North,357,2.0,5.0,60,0.00,,,0.00,VWS V14.01,2013-01-14 05:55:00,
2013-01-13 23:58:00,35.2,22.3,30.21,NNE,23,10.0,16.0,59,0.00,,,0.00,VWS V14.01,2013-01-14 05:58:00,